Time;durP1;ratioP1;P1;durP2;ratioP2;P2;SDS_P1;SDS_P2;PMS_P1;PMS_P2;Temp;Humidity;BMP_temperature;BMP_pressure;BME280_temperature;BME280_humidity;BME280_pressure;Samples;Min_cycle;Max_cycle;Signal;HPM_P1;HPM_P2
2023/10/30 00:02:18;;;;;;;3.43;1.23;;;;;;;;;;4966175;28;20171;-66
2023/10/30 00:04:43;;;;;;;6.03;2.03;;;;;;;;;;4968613;28;20200;-66
2023/10/30 00:07:08;;;;;;;6.83;2.23;;;;;;;;;;4971558;28;20176;-66
2023/10/30 00:09:33;;;;;;;6.93;1.80;;;;;;;;;;4970816;28;20176;-66
2023/10/30 00:12:00;;;;;;;6.67;1.80;;;;;;;;;;4970779;28;20578;-67
2023/10/30 00:14:26;;;;;;;5.03;1.70;;;;;;;;;;4971115;28;20457;-65
2023/10/30 00:16:51;;;;;;;5.93;1.50;;;;;;;;;;4969997;28;20713;-66
2023/10/30 00:19:16;;;;;;;8.03;2.60;;;;;;;;;;4970888;28;20259;-66
2023/10/30 00:21:41;;;;;;;5.07;1.60;;;;;;;;;;4966355;28;20211;-66
2023/10/30 00:24:06;;;;;;;8.73;1.67;;;;;;;;;;4960499;28;20212;-67
2023/10/30 00:26:32;;;;;;;6.63;1.77;;;;;;;;;;4964022;28;20291;-67
2023/10/30 00:28:57;;;;;;;7.60;1.53;;;;;;;;;;4970893;28;20177;-67
2023/10/30 00:31:22;;;;;;;8.03;2.63;;;;;;;;;;4970635;28;20212;-67
2023/10/30 00:33:48;;;;;;;5.67;1.63;;;;;;;;;;4970002;28;20271;-67
2023/10/30 00:36:13;;;;;;;11.77;1.63;;;;;;;;;;4968080;28;20219;-67
2023/10/30 00:38:39;;;;;;;6.30;1.40;;;;;;;;;;4977999;28;20187;-67
2023/10/30 00:41:07;;;;;;;6.53;1.77;;;;;;;;;;4967211;28;20168;-69
2023/10/30 00:43:32;;;;;;;5.43;1.93;;;;;;;;;;4966836;28;20180;-67
2023/10/30 00:45:58;;;;;;;4.10;1.63;;;;;;;;;;4970208;28;20336;-67
2023/10/30 00:48:25;;;;;;;7.63;1.67;;;;;;;;;;4970296;28;20189;-67
2023/10/30 00:50:50;;;;;;;7.37;1.30;;;;;;;;;;4969893;28;20188;-67
2023/10/30 00:53:15;;;;;;;9.80;1.87;;;;;;;;;;4972211;28;20183;-67
2023/10/30 00:55:41;;;;;;;9.00;2.53;;;;;;;;;;4974070;28;20212;-67
2023/10/30 00:58:07;;;;;;;12.37;2.10;;;;;;;;;;4974805;28;20337;-67
2023/10/30 01:00:33;;;;;;;7.57;1.63;;;;;;;;;;4965020;28;20562;-67
2023/10/30 01:02:58;;;;;;;7.23;1.50;;;;;;;;;;4972865;28;20184;-67
2023/10/30 01:05:23;;;;;;;10.00;2.00;;;;;;;;;;4974228;28;20193;-67
2023/10/30 01:07:48;;;;;;;6.90;2.03;;;;;;;;;;4973803;28;20177;-67
2023/10/30 01:10:14;;;;;;;8.67;2.03;;;;;;;;;;4974563;28;20192;-67
2023/10/30 01:12:39;;;;;;;6.50;1.57;;;;;;;;;;4974354;28;20195;-67
2023/10/30 01:15:05;;;;;;;9.13;1.90;;;;;;;;;;4974394;28;20318;-66
2023/10/30 01:17:30;;;;;;;10.90;2.03;;;;;;;;;;4969548;28;20219;-66
2023/10/30 01:19:55;;;;;;;5.20;1.80;;;;;;;;;;4970065;28;20191;-66
2023/10/30 01:22:20;;;;;;;6.47;1.87;;;;;;;;;;4974333;28;20176;-66
2023/10/30 01:24:45;;;;;;;4.57;1.73;;;;;;;;;;4972514;28;20224;-66
2023/10/30 01:27:11;;;;;;;5.00;1.60;;;;;;;;;;4973980;28;20188;-65
2023/10/30 01:29:36;;;;;;;5.47;1.97;;;;;;;;;;4972789;28;20702;-65
2023/10/30 01:32:01;;;;;;;6.60;1.83;;;;;;;;;;4970855;28;20216;-66
2023/10/30 01:34:27;;;;;;;7.37;1.80;;;;;;;;;;4961519;28;20188;-66
2023/10/30 01:36:52;;;;;;;7.10;1.63;;;;;;;;;;4970573;28;20215;-66
2023/10/30 01:39:18;;;;;;;14.37;4.07;;;;;;;;;;4967354;28;20184;-66
2023/10/30 01:41:43;;;;;;;8.43;2.00;;;;;;;;;;4972773;28;20180;-66
2023/10/30 01:44:09;;;;;;;10.57;1.93;;;;;;;;;;4970132;28;20238;-66
2023/10/30 01:46:34;;;;;;;6.13;1.47;;;;;;;;;;4973856;28;20207;-66
2023/10/30 01:48:59;;;;;;;8.73;2.20;;;;;;;;;;4972149;28;20179;-66
2023/10/30 01:51:25;;;;;;;11.53;2.13;;;;;;;;;;4970719;28;20343;-66
2023/10/30 01:53:51;;;;;;;8.07;1.90;;;;;;;;;;4965627;28;20176;-66
2023/10/30 01:56:16;;;;;;;7.23;2.37;;;;;;;;;;4970703;28;20208;-66
2023/10/30 01:58:41;;;;;;;8.50;2.10;;;;;;;;;;4974079;28;20183;-66
2023/10/30 02:01:07;;;;;;;4.20;1.40;;;;;;;;;;4972470;28;20180;-66
2023/10/30 02:03:33;;;;;;;8.23;2.00;;;;;;;;;;4973512;28;20203;-66
2023/10/30 02:05:58;;;;;;;8.30;1.93;;;;;;;;;;4972026;28;20259;-66
2023/10/30 02:08:23;;;;;;;7.40;2.30;;;;;;;;;;4975396;28;20257;-66
2023/10/30 02:10:48;;;;;;;8.67;1.53;;;;;;;;;;4966943;28;20227;-66
2023/10/30 02:13:14;;;;;;;4.90;1.53;;;;;;;;;;4971048;28;20654;-66
2023/10/30 02:15:39;;;;;;;10.03;1.73;;;;;;;;;;4977479;28;20208;-66
2023/10/30 02:18:04;;;;;;;4.37;1.60;;;;;;;;;;4972426;28;20184;-65
2023/10/30 02:20:30;;;;;;;12.57;2.27;;;;;;;;;;4972436;28;20276;-66
2023/10/30 02:22:55;;;;;;;6.30;1.67;;;;;;;;;;4973524;28;20176;-66
2023/10/30 02:25:22;;;;;;;5.30;1.70;;;;;;;;;;4971789;28;20204;-66
2023/10/30 02:27:48;;;;;;;4.77;1.40;;;;;;;;;;4967399;28;20272;-65
2023/10/30 02:30:13;;;;;;;3.77;1.70;;;;;;;;;;4974039;28;20618;-65
2023/10/30 02:32:44;;;;;;;9.13;1.97;;;;;;;;;;4968919;28;20180;-66
2023/10/30 02:35:16;;;;;;;8.93;1.80;;;;;;;;;;4970645;28;20316;-65
2023/10/30 02:37:42;;;;;;;5.53;1.83;;;;;;;;;;4972982;28;20647;-66
2023/10/30 02:40:07;;;;;;;5.43;1.70;;;;;;;;;;4972236;28;20275;-66
2023/10/30 02:42:33;;;;;;;6.00;1.53;;;;;;;;;;4973101;28;20666;-66
2023/10/30 02:44:58;;;;;;;9.30;2.10;;;;;;;;;;4971524;28;20572;-66
2023/10/30 02:47:24;;;;;;;14.17;2.00;;;;;;;;;;4971149;28;20743;-66
2023/10/30 02:49:49;;;;;;;8.27;1.90;;;;;;;;;;4968774;28;20180;-66
2023/10/30 02:52:14;;;;;;;10.50;2.37;;;;;;;;;;4969173;28;20180;-66
2023/10/30 02:54:40;;;;;;;5.43;1.83;;;;;;;;;;4971723;28;20200;-66
2023/10/30 02:57:05;;;;;;;6.47;1.83;;;;;;;;;;4970995;28;20204;-66
2023/10/30 02:59:30;;;;;;;8.83;2.07;;;;;;;;;;4972661;28;20592;-66
2023/10/30 03:01:55;;;;;;;7.50;1.83;;;;;;;;;;4970946;28;20534;-66
2023/10/30 03:04:21;;;;;;;5.67;1.90;;;;;;;;;;4972713;28;20204;-66
2023/10/30 03:06:46;;;;;;;12.93;2.20;;;;;;;;;;4971462;28;20214;-66
2023/10/30 03:09:11;;;;;;;10.77;2.37;;;;;;;;;;4968042;28;20581;-66
2023/10/30 03:11:36;;;;;;;5.77;1.37;;;;;;;;;;4961664;28;20577;-66
2023/10/30 03:14:02;;;;;;;8.03;2.27;;;;;;;;;;4974672;28;20216;-67
2023/10/30 03:16:27;;;;;;;7.13;1.47;;;;;;;;;;4971251;28;20212;-67
2023/10/30 03:18:52;;;;;;;5.00;1.43;;;;;;;;;;4970569;28;20234;-66
2023/10/30 03:21:17;;;;;;;9.13;2.07;;;;;;;;;;4972276;28;20215;-67
2023/10/30 03:23:42;;;;;;;10.60;3.00;;;;;;;;;;4970312;28;20655;-66
2023/10/30 03:26:07;;;;;;;5.40;1.67;;;;;;;;;;4971894;28;20208;-67
2023/10/30 03:28:33;;;;;;;5.50;1.27;;;;;;;;;;4969665;28;20172;-66
2023/10/30 03:31:05;;;;;;;8.80;1.83;;;;;;;;;;4965306;28;20575;-67
2023/10/30 03:33:31;;;;;;;9.73;2.40;;;;;;;;;;4971866;28;20219;-66
2023/10/30 03:35:56;;;;;;;12.33;2.13;;;;;;;;;;4969996;28;20227;-66
2023/10/30 03:38:21;;;;;;;12.80;2.50;;;;;;;;;;4972359;28;20172;-66
2023/10/30 03:40:46;;;;;;;14.80;1.87;;;;;;;;;;4971179;28;20188;-66
2023/10/30 03:43:14;;;;;;;9.67;2.87;;;;;;;;;;4968581;28;20252;-66
2023/10/30 03:45:39;;;;;;;9.70;2.10;;;;;;;;;;4969759;28;20777;-67
2023/10/30 03:48:04;;;;;;;7.87;2.00;;;;;;;;;;4964991;28;20196;-66
2023/10/30 03:50:29;;;;;;;6.60;2.30;;;;;;;;;;4962173;28;20192;-66
2023/10/30 03:52:54;;;;;;;8.07;1.80;;;;;;;;;;4966574;28;20274;-66
2023/10/30 03:55:20;;;;;;;10.20;2.13;;;;;;;;;;4969412;28;20200;-66
2023/10/30 03:57:45;;;;;;;4.63;1.47;;;;;;;;;;4971846;28;20711;-67
2023/10/30 04:00:11;;;;;;;5.80;1.30;;;;;;;;;;4971606;28;20181;-66
2023/10/30 04:02:36;;;;;;;6.97;1.80;;;;;;;;;;4970022;28;20542;-66
2023/10/30 04:05:01;;;;;;;7.57;1.67;;;;;;;;;;4970466;28;20195;-66
2023/10/30 04:07:26;;;;;;;13.60;2.90;;;;;;;;;;4971886;28;20307;-66
2023/10/30 04:09:53;;;;;;;8.90;1.70;;;;;;;;;;4963307;28;20172;-67
2023/10/30 04:12:19;;;;;;;7.93;1.80;;;;;;;;;;4971026;28;20725;-66
2023/10/30 04:14:45;;;;;;;7.63;1.53;;;;;;;;;;4968601;28;20299;-66
2023/10/30 04:17:10;;;;;;;7.37;1.70;;;;;;;;;;4971190;28;20567;-66
2023/10/30 04:19:35;;;;;;;5.43;1.80;;;;;;;;;;4971254;28;20185;-66
2023/10/30 04:22:01;;;;;;;4.43;1.30;;;;;;;;;;4971951;28;20279;-67
2023/10/30 04:24:26;;;;;;;5.63;1.53;;;;;;;;;;4971086;28;20227;-66
2023/10/30 04:26:52;;;;;;;7.10;1.43;;;;;;;;;;4970866;28;20238;-66
2023/10/30 04:29:17;;;;;;;10.67;2.73;;;;;;;;;;4970363;28;20196;-66
2023/10/30 04:31:42;;;;;;;6.70;1.77;;;;;;;;;;4971027;28;20633;-66
2023/10/30 04:34:07;;;;;;;10.53;1.83;;;;;;;;;;4964680;28;20234;-66
2023/10/30 04:36:33;;;;;;;4.73;1.43;;;;;;;;;;4971514;28;20211;-66
2023/10/30 04:38:58;;;;;;;6.77;1.87;;;;;;;;;;4973874;28;20679;-66
2023/10/30 04:41:23;;;;;;;14.50;2.20;;;;;;;;;;4975174;28;20644;-66
2023/10/30 04:43:49;;;;;;;4.53;1.93;;;;;;;;;;4975041;28;20734;-67
2023/10/30 04:46:14;;;;;;;9.23;1.97;;;;;;;;;;4974890;28;20232;-66
2023/10/30 04:48:39;;;;;;;3.50;1.40;;;;;;;;;;4973073;28;20208;-66
2023/10/30 04:51:04;;;;;;;12.23;2.47;;;;;;;;;;4969831;28;20172;-66
2023/10/30 04:53:29;;;;;;;7.67;1.80;;;;;;;;;;4969101;28;20181;-66
2023/10/30 04:55:56;;;;;;;17.10;3.07;;;;;;;;;;4974064;28;20239;-66
2023/10/30 04:58:22;;;;;;;9.17;2.53;;;;;;;;;;4975040;28;20176;-66
2023/10/30 05:00:47;;;;;;;9.60;2.60;;;;;;;;;;4973809;28;20574;-66
2023/10/30 05:03:13;;;;;;;11.97;2.83;;;;;;;;;;4975088;28;20172;-66
2023/10/30 05:05:38;;;;;;;7.53;2.33;;;;;;;;;;4973985;28;20204;-66
2023/10/30 05:08:04;;;;;;;21.50;1.93;;;;;;;;;;4974432;28;20184;-66
2023/10/30 05:10:29;;;;;;;7.00;2.87;;;;;;;;;;4967051;28;20199;-66
2023/10/30 05:12:54;;;;;;;8.27;2.10;;;;;;;;;;4971695;28;20200;-66
2023/10/30 05:15:22;;;;;;;9.53;1.77;;;;;;;;;;4974096;28;20202;-66
2023/10/30 05:17:48;;;;;;;12.90;1.90;;;;;;;;;;4974431;28;20201;-66
2023/10/30 05:20:13;;;;;;;6.90;1.67;;;;;;;;;;4974653;28;20180;-66
2023/10/30 05:22:39;;;;;;;14.47;2.53;;;;;;;;;;4973019;28;20580;-66
2023/10/30 05:25:05;;;;;;;12.83;2.33;;;;;;;;;;4973767;28;20192;-66
2023/10/30 05:27:31;;;;;;;7.13;2.43;;;;;;;;;;4966953;28;20189;-66
2023/10/30 05:29:56;;;;;;;6.90;2.23;;;;;;;;;;4968799;28;20196;-66
2023/10/30 05:32:21;;;;;;;6.40;1.90;;;;;;;;;;4974846;28;20250;-66
2023/10/30 05:34:48;;;;;;;5.80;1.80;;;;;;;;;;4976131;28;20287;-66
2023/10/30 05:37:13;;;;;;;6.20;2.50;;;;;;;;;;4972640;28;20200;-67
2023/10/30 05:39:38;;;;;;;7.70;2.30;;;;;;;;;;4973013;28;20266;-66
2023/10/30 05:42:04;;;;;;;12.57;2.17;;;;;;;;;;4973581;28;20176;-66
2023/10/30 05:44:30;;;;;;;12.90;2.77;;;;;;;;;;4968248;28;20184;-66
2023/10/30 05:46:55;;;;;;;13.00;2.73;;;;;;;;;;4969879;28;20263;-67
2023/10/30 05:49:21;;;;;;;5.73;2.00;;;;;;;;;;4972283;28;20312;-66
2023/10/30 05:51:46;;;;;;;10.67;2.17;;;;;;;;;;4973370;28;20695;-66
2023/10/30 05:54:11;;;;;;;11.73;2.40;;;;;;;;;;4973111;28;20186;-66
2023/10/30 05:56:37;;;;;;;12.77;3.00;;;;;;;;;;4973700;28;20192;-66
2023/10/30 05:59:02;;;;;;;12.83;2.30;;;;;;;;;;4973082;28;20652;-66
2023/10/30 06:01:28;;;;;;;12.93;2.23;;;;;;;;;;4972230;28;20754;-66
2023/10/30 06:03:53;;;;;;;12.50;2.60;;;;;;;;;;4962438;28;20172;-65
2023/10/30 06:06:18;;;;;;;9.03;2.07;;;;;;;;;;4971279;28;20239;-66
2023/10/30 06:08:43;;;;;;;6.70;2.17;;;;;;;;;;4972893;28;20187;-66
2023/10/30 06:11:10;;;;;;;7.57;2.37;;;;;;;;;;4968086;28;20651;-66
2023/10/30 06:13:35;;;;;;;9.33;1.90;;;;;;;;;;4970372;28;20911;-66
2023/10/30 06:16:00;;;;;;;5.93;2.10;;;;;;;;;;4973127;28;20208;-66
2023/10/30 06:18:25;;;;;;;8.10;2.27;;;;;;;;;;4973598;28;20187;-66
2023/10/30 06:20:51;;;;;;;12.10;2.07;;;;;;;;;;4973484;28;20227;-66
2023/10/30 06:23:16;;;;;;;9.20;2.50;;;;;;;;;;4973401;28;20674;-66
2023/10/30 06:25:41;;;;;;;7.03;2.60;;;;;;;;;;4968735;28;20679;-66
2023/10/30 06:28:08;;;;;;;7.03;2.80;;;;;;;;;;4965741;28;20199;-67
2023/10/30 06:30:33;;;;;;;7.17;2.10;;;;;;;;;;4973545;28;20227;-66
2023/10/30 06:32:59;;;;;;;11.43;2.43;;;;;;;;;;4973430;28;20671;-66
2023/10/30 06:35:24;;;;;;;7.60;2.20;;;;;;;;;;4974073;28;20246;-66
2023/10/30 06:37:50;;;;;;;8.07;2.40;;;;;;;;;;4972937;28;20176;-66
2023/10/30 06:40:15;;;;;;;11.40;2.57;;;;;;;;;;4973248;28;20208;-66
2023/10/30 06:42:40;;;;;;;10.93;2.43;;;;;;;;;;4968570;28;20180;-66
2023/10/30 06:45:06;;;;;;;9.77;2.03;;;;;;;;;;4968202;28;20208;-66
2023/10/30 06:47:32;;;;;;;8.57;3.10;;;;;;;;;;4968042;28;20183;-65
2023/10/30 06:49:57;;;;;;;6.53;2.40;;;;;;;;;;4966514;28;20187;-69
2023/10/30 06:52:23;;;;;;;7.20;1.87;;;;;;;;;;4972040;28;20207;-66
2023/10/30 06:54:48;;;;;;;8.20;1.73;;;;;;;;;;4972354;28;20207;-66
2023/10/30 06:57:13;;;;;;;10.90;2.37;;;;;;;;;;4971315;28;20271;-67
2023/10/30 06:59:38;;;;;;;6.37;2.60;;;;;;;;;;4972592;28;20271;-66
2023/10/30 07:02:04;;;;;;;5.17;2.23;;;;;;;;;;4965628;28;20180;-66
2023/10/30 07:04:30;;;;;;;10.03;2.43;;;;;;;;;;4969535;28;20176;-66
2023/10/30 07:06:55;;;;;;;5.90;1.97;;;;;;;;;;4972007;28;20297;-66
2023/10/30 07:09:20;;;;;;;8.53;2.20;;;;;;;;;;4967899;28;20218;-66
2023/10/30 07:11:45;;;;;;;10.50;2.63;;;;;;;;;;4972266;28;20180;-66
2023/10/30 07:14:11;;;;;;;7.00;2.10;;;;;;;;;;4972174;28;20672;-66
2023/10/30 07:16:36;;;;;;;6.97;2.20;;;;;;;;;;4972137;28;20208;-66
2023/10/30 07:19:02;;;;;;;8.97;2.63;;;;;;;;;;4962885;28;20196;-66
2023/10/30 07:21:27;;;;;;;7.60;2.50;;;;;;;;;;4968896;28;20636;-66
2023/10/30 07:23:52;;;;;;;7.43;2.37;;;;;;;;;;4972108;28;20176;-66
2023/10/30 07:26:18;;;;;;;9.90;1.80;;;;;;;;;;4970281;28;20227;-67
2023/10/30 07:28:43;;;;;;;12.27;2.90;;;;;;;;;;4963127;28;20180;-67
2023/10/30 07:31:09;;;;;;;10.03;2.80;;;;;;;;;;4970643;28;20203;-67
2023/10/30 07:33:34;;;;;;;10.83;3.13;;;;;;;;;;4967513;28;20188;-67
2023/10/30 07:36:02;;;;;;;10.53;3.40;;;;;;;;;;4969259;28;20308;-67
2023/10/30 07:38:28;;;;;;;10.80;2.07;;;;;;;;;;4969520;28;20176;-67
2023/10/30 07:40:53;;;;;;;13.43;2.80;;;;;;;;;;4971460;28;20191;-67
2023/10/30 07:43:18;;;;;;;7.73;2.67;;;;;;;;;;4972008;28;20231;-67
2023/10/30 07:45:44;;;;;;;9.73;2.20;;;;;;;;;;4970964;28;20200;-67
2023/10/30 07:48:09;;;;;;;12.10;2.27;;;;;;;;;;4963719;28;20579;-67
2023/10/30 07:50:37;;;;;;;7.80;2.80;;;;;;;;;;4968925;28;20184;-67
2023/10/30 07:53:02;;;;;;;7.30;2.50;;;;;;;;;;4971803;28;20657;-67
2023/10/30 07:55:28;;;;;;;7.43;2.55;;;;;;;;;;4970960;28;20283;-67
2023/10/30 07:57:53;;;;;;;5.70;2.40;;;;;;;;;;4969479;28;20179;-67
2023/10/30 08:00:18;;;;;;;12.38;3.05;;;;;;;;;;4971409;28;20188;-67
2023/10/30 08:02:46;;;;;;;10.02;3.20;;;;;;;;;;4971871;28;20176;-67
2023/10/30 08:05:13;;;;;;;6.85;2.15;;;;;;;;;;4972278;28;20668;-67
2023/10/30 08:07:38;;;;;;;10.20;2.40;;;;;;;;;;4958295;28;20188;-67
2023/10/30 08:10:04;;;;;;;9.77;2.30;;;;;;;;;;4970397;28;20529;-67
2023/10/30 08:12:29;;;;;;;7.18;2.65;;;;;;;;;;4983518;28;20195;-67
2023/10/30 08:14:55;;;;;;;4.35;1.95;;;;;;;;;;4973273;28;20200;-67
2023/10/30 08:17:20;;;;;;;8.65;2.35;;;;;;;;;;4974877;28;20698;-67
2023/10/30 08:19:45;;;;;;;10.27;2.42;;;;;;;;;;4974127;28;20183;-67
2023/10/30 08:22:10;;;;;;;14.63;2.60;;;;;;;;;;4975800;28;20180;-67
2023/10/30 08:24:35;;;;;;;10.40;1.98;;;;;;;;;;4975106;28;20254;-67
2023/10/30 08:27:01;;;;;;;7.57;1.92;;;;;;;;;;4966513;28;20180;-67
2023/10/30 08:29:26;;;;;;;6.18;2.03;;;;;;;;;;4972767;28;20203;-67
2023/10/30 08:31:52;;;;;;;5.60;1.70;;;;;;;;;;4974686;28;20659;-67
2023/10/30 08:34:17;;;;;;;9.18;2.97;;;;;;;;;;4970237;28;20196;-67
2023/10/30 08:36:42;;;;;;;8.52;1.58;;;;;;;;;;4968259;28;20196;-67
2023/10/30 08:39:07;;;;;;;13.00;2.15;;;;;;;;;;4954362;28;20267;-67
2023/10/30 08:41:33;;;;;;;10.32;1.65;;;;;;;;;;4953322;28;20734;-67
2023/10/30 08:43:58;;;;;;;8.38;1.83;;;;;;;;;;4952231;28;20242;-67
2023/10/30 08:46:24;;;;;;;7.20;1.90;;;;;;;;;;4950774;28;20294;-67
2023/10/30 08:48:49;;;;;;;4.32;1.85;;;;;;;;;;4957030;28;20543;-67
2023/10/30 08:51:14;;;;;;;7.90;1.90;;;;;;;;;;4956306;28;20194;-67
2023/10/30 08:53:39;;;;;;;6.38;1.73;;;;;;;;;;4952615;28;20604;-67
2023/10/30 08:56:05;;;;;;;10.98;1.75;;;;;;;;;;4951496;28;20219;-67
2023/10/30 08:58:30;;;;;;;7.47;2.25;;;;;;;;;;4960593;28;20512;-67
2023/10/30 09:00:56;;;;;;;10.30;2.60;;;;;;;;;;4973656;28;20441;-67
2023/10/30 09:03:21;;;;;;;9.75;2.17;;;;;;;;;;4974495;28;20184;-67
2023/10/30 09:05:47;;;;;;;12.13;2.70;;;;;;;;;;4974163;28;20327;-67
2023/10/30 09:08:12;;;;;;;5.82;2.05;;;;;;;;;;4974382;28;20774;-66
2023/10/30 09:10:37;;;;;;;7.38;1.70;;;;;;;;;;4974395;28;20187;-66
2023/10/30 09:13:02;;;;;;;6.57;1.90;;;;;;;;;;4971596;28;20200;-66
2023/10/30 09:15:28;;;;;;;12.60;2.83;;;;;;;;;;4972969;28;20569;-66
2023/10/30 09:17:53;;;;;;;6.57;1.73;;;;;;;;;;4974632;28;20247;-66
2023/10/30 09:20:18;;;;;;;6.55;2.55;;;;;;;;;;4974232;28;20184;-67
2023/10/30 09:22:43;;;;;;;4.05;1.40;;;;;;;;;;4972692;28;20176;-67
2023/10/30 09:25:09;;;;;;;6.35;2.05;;;;;;;;;;4973923;28;20692;-67
2023/10/30 09:27:34;;;;;;;8.23;1.80;;;;;;;;;;4972556;28;20247;-67
2023/10/30 09:30:00;;;;;;;4.07;2.05;;;;;;;;;;4956938;28;20211;-68
2023/10/30 09:32:25;;;;;;;7.03;1.98;;;;;;;;;;4954191;28;20188;-67
2023/10/30 09:34:51;;;;;;;8.98;1.70;;;;;;;;;;4951716;28;21075;-67
2023/10/30 09:37:16;;;;;;;11.00;3.00;;;;;;;;;;4950885;28;21062;-67
2023/10/30 09:39:41;;;;;;;7.75;1.98;;;;;;;;;;4951517;28;20188;-67
2023/10/30 09:42:07;;;;;;;7.85;2.38;;;;;;;;;;4955841;28;20184;-67
2023/10/30 09:44:33;;;;;;;8.27;2.13;;;;;;;;;;4950810;28;20289;-67
2023/10/30 09:46:59;;;;;;;9.90;1.77;;;;;;;;;;4951846;28;20180;-67
2023/10/30 09:49:24;;;;;;;9.93;3.03;;;;;;;;;;4953940;28;20176;-67
2023/10/30 09:51:49;;;;;;;4.28;1.77;;;;;;;;;;4954776;28;20196;-67
2023/10/30 09:54:16;;;;;;;9.02;1.83;;;;;;;;;;4952143;28;20180;-67
2023/10/30 09:56:41;;;;;;;6.85;2.13;;;;;;;;;;4951108;28;20893;-67
2023/10/30 09:59:09;;;;;;;14.45;2.53;;;;;;;;;;4951666;28;20199;-66
2023/10/30 10:01:35;;;;;;;11.10;3.20;;;;;;;;;;4956349;28;20517;-66
2023/10/30 10:04:00;;;;;;;7.57;1.45;;;;;;;;;;4958510;28;20271;-65
2023/10/30 10:06:25;;;;;;;9.38;2.47;;;;;;;;;;4951265;28;20687;-66
2023/10/30 10:08:51;;;;;;;5.20;1.67;;;;;;;;;;4953689;28;20215;-66
2023/10/30 10:11:19;;;;;;;7.70;1.95;;;;;;;;;;4950747;28;20199;-66
2023/10/30 10:13:48;;;;;;;8.32;2.10;;;;;;;;;;4951509;28;20223;-66
2023/10/30 10:16:13;;;;;;;6.93;2.03;;;;;;;;;;4945893;28;20216;-66
2023/10/30 10:18:38;;;;;;;11.88;2.42;;;;;;;;;;4951456;28;20270;-66
2023/10/30 10:21:05;;;;;;;3.97;1.67;;;;;;;;;;4954037;28;20584;-66
2023/10/30 10:23:31;;;;;;;8.23;1.80;;;;;;;;;;4950719;28;20192;-66
2023/10/30 10:25:57;;;;;;;5.43;1.98;;;;;;;;;;4950152;28;20212;-66
2023/10/30 10:28:23;;;;;;;8.88;1.60;;;;;;;;;;4950575;28;20184;-66
2023/10/30 10:30:48;;;;;;;6.88;1.88;;;;;;;;;;4950674;28;20188;-66
2023/10/30 10:33:14;;;;;;;7.20;1.50;;;;;;;;;;4953360;28;20540;-66
2023/10/30 10:35:42;;;;;;;5.78;1.83;;;;;;;;;;4949991;28;20204;-66
2023/10/30 10:38:08;;;;;;;8.57;2.53;;;;;;;;;;4947961;28;21091;-66
2023/10/30 10:40:33;;;;;;;6.05;1.83;;;;;;;;;;4953417;28;20172;-66
2023/10/30 10:42:59;;;;;;;9.88;2.15;;;;;;;;;;4952577;28;20878;-66
2023/10/30 10:45:24;;;;;;;6.57;1.70;;;;;;;;;;4949878;28;20207;-66
2023/10/30 10:47:50;;;;;;;6.93;2.05;;;;;;;;;;4950160;28;21015;-66
2023/10/30 10:50:15;;;;;;;6.80;1.73;;;;;;;;;;4952902;28;20192;-66
2023/10/30 10:52:41;;;;;;;6.45;1.80;;;;;;;;;;4951244;28;20852;-66
2023/10/30 10:55:08;;;;;;;4.22;1.50;;;;;;;;;;4950294;28;20196;-66
2023/10/30 10:57:44;;;;;;;4.60;1.55;;;;;;;;;;4950911;28;21018;-66
2023/10/30 11:00:11;;;;;;;4.25;1.48;;;;;;;;;;4968638;28;20195;-66
2023/10/30 11:02:38;;;;;;;5.22;1.58;;;;;;;;;;4970076;28;20183;-66
2023/10/30 11:05:05;;;;;;;8.07;2.22;;;;;;;;;;4969045;28;20208;-67
2023/10/30 11:07:35;;;;;;;6.35;2.35;;;;;;;;;;4972192;28;20191;-67
2023/10/30 11:10:03;;;;;;;5.10;1.27;;;;;;;;;;4969554;28;20556;-66
2023/10/30 11:12:52;;;;;;;9.80;1.60;;;;;;;;;;4972266;28;20773;-67
2023/10/30 11:15:35;;;;;;;6.95;2.17;;;;;;;;;;4970163;28;20216;-67
2023/10/30 11:18:21;;;;;;;10.35;2.03;;;;;;;;;;4971744;28;20327;-67
2023/10/30 11:20:47;;;;;;;5.80;1.60;;;;;;;;;;4968407;28;20201;-67
2023/10/30 11:23:12;;;;;;;6.95;1.58;;;;;;;;;;4971887;28;20212;-67
2023/10/30 11:26:11;;;;;;;10.55;1.77;;;;;;;;;;4971925;28;20632;-66
2023/10/30 11:28:35;;;;;;;8.88;1.90;;;;;;;;;;4969111;28;20200;-66
2023/10/30 11:31:03;;;;;;;7.22;1.92;;;;;;;;;;4968955;28;20656;-66
2023/10/30 11:33:30;;;;;;;12.07;2.47;;;;;;;;;;4952689;28;20687;-66
2023/10/30 11:36:14;;;;;;;5.95;1.60;;;;;;;;;;4948647;28;20320;-66
2023/10/30 11:38:51;;;;;;;5.97;1.33;;;;;;;;;;4949523;28;20651;-67
2023/10/30 11:41:17;;;;;;;9.38;2.00;;;;;;;;;;4950069;28;20203;-67
2023/10/30 11:43:42;;;;;;;8.98;1.52;;;;;;;;;;4949274;28;20692;-67
2023/10/30 11:46:07;;;;;;;10.05;1.42;;;;;;;;;;4950360;28;20240;-67
2023/10/30 11:48:35;;;;;;;5.63;1.85;;;;;;;;;;4953964;28;20576;-67
2023/10/30 11:51:01;;;;;;;10.93;1.48;;;;;;;;;;4970437;28;20656;-68
2023/10/30 11:53:27;;;;;;;4.72;1.65;;;;;;;;;;4953185;28;20265;-67
2023/10/30 11:55:52;;;;;;;6.70;1.58;;;;;;;;;;4949125;28;20201;-66
2023/10/30 11:58:18;;;;;;;4.68;1.75;;;;;;;;;;4948949;28;20235;-67
2023/10/30 12:00:47;;;;;;;4.82;1.70;;;;;;;;;;4949000;28;20184;-67
2023/10/30 12:03:13;;;;;;;5.22;1.38;;;;;;;;;;4952954;28;20620;-67
2023/10/30 12:05:38;;;;;;;7.30;1.52;;;;;;;;;;4950200;28;20207;-67
2023/10/30 12:08:04;;;;;;;7.68;1.60;;;;;;;;;;4948958;28;20322;-67
2023/10/30 12:10:30;;;;;;;4.82;1.52;;;;;;;;;;4950116;28;20406;-67
2023/10/30 12:12:55;;;;;;;3.85;1.25;;;;;;;;;;4950398;28;20200;-65
2023/10/30 12:15:20;;;;;;;9.85;1.90;;;;;;;;;;4950567;28;20205;-65
2023/10/30 12:17:45;;;;;;;4.68;1.70;;;;;;;;;;4947711;28;20216;-66
2023/10/30 12:20:11;;;;;;;9.02;1.67;;;;;;;;;;4947930;28;20187;-65
2023/10/30 12:22:41;;;;;;;5.88;1.58;;;;;;;;;;4951906;28;20636;-66
2023/10/30 12:25:07;;;;;;;3.55;1.00;;;;;;;;;;4949578;28;20224;-66
2023/10/30 12:27:33;;;;;;;5.32;1.50;;;;;;;;;;4948905;28;20881;-66
2023/10/30 12:30:08;;;;;;;4.75;1.40;;;;;;;;;;4949526;28;21023;-66
2023/10/30 12:32:33;;;;;;;5.97;1.80;;;;;;;;;;4949010;28;20180;-66
2023/10/30 12:35:18;;;;;;;6.20;1.40;;;;;;;;;;4949632;28;20707;-66
2023/10/30 12:37:43;;;;;;;4.72;1.35;;;;;;;;;;4949341;28;20271;-66
2023/10/30 12:40:12;;;;;;;8.38;1.67;;;;;;;;;;4950051;28;20270;-66
2023/10/30 12:42:41;;;;;;;3.22;1.15;;;;;;;;;;4948300;28;20180;-66
2023/10/30 12:45:08;;;;;;;5.35;1.85;;;;;;;;;;4949239;28;20204;-67
2023/10/30 12:47:36;;;;;;;7.55;1.25;;;;;;;;;;4952241;28;20204;-66
2023/10/30 12:50:01;;;;;;;4.13;1.45;;;;;;;;;;4951906;28;20181;-66
2023/10/30 12:52:26;;;;;;;7.68;2.13;;;;;;;;;;4953755;28;20184;-66
2023/10/30 12:54:52;;;;;;;10.32;2.00;;;;;;;;;;4954113;28;20257;-66
2023/10/30 12:57:17;;;;;;;4.78;1.77;;;;;;;;;;4953162;28;20216;-66
2023/10/30 12:59:42;;;;;;;5.53;1.70;;;;;;;;;;4974445;28;20234;-66
2023/10/30 13:02:08;;;;;;;4.95;1.30;;;;;;;;;;4973120;28;20176;-66
2023/10/30 13:04:34;;;;;;;8.40;2.03;;;;;;;;;;4973244;28;20318;-66
2023/10/30 13:06:59;;;;;;;3.13;1.65;;;;;;;;;;4974551;28;20215;-66
2023/10/30 13:09:24;;;;;;;4.78;1.20;;;;;;;;;;4974395;28;20184;-67
2023/10/30 13:11:50;;;;;;;5.47;1.73;;;;;;;;;;4974490;28;20181;-66
2023/10/30 13:14:15;;;;;;;4.50;1.55;;;;;;;;;;4973865;28;20258;-66
2023/10/30 13:16:41;;;;;;;6.97;1.20;;;;;;;;;;4973783;28;20223;-66
2023/10/30 13:19:07;;;;;;;3.22;1.02;;;;;;;;;;4974146;28;20176;-66
2023/10/30 13:21:32;;;;;;;1.63;0.98;;;;;;;;;;4970668;28;20566;-66
2023/10/30 13:23:57;;;;;;;2.60;0.93;;;;;;;;;;4974362;28;20589;-66
2023/10/30 13:26:22;;;;;;;3.45;1.55;;;;;;;;;;4973043;28;20207;-66
2023/10/30 13:28:47;;;;;;;6.07;0.90;;;;;;;;;;4971511;28;20196;-65
2023/10/30 13:31:13;;;;;;;3.25;1.40;;;;;;;;;;4973796;28;20195;-65
2023/10/30 13:33:38;;;;;;;4.28;1.55;;;;;;;;;;4960971;28;20188;-65
2023/10/30 13:36:03;;;;;;;3.75;1.23;;;;;;;;;;4950885;28;20519;-65
2023/10/30 13:38:28;;;;;;;3.00;1.25;;;;;;;;;;4951086;28;20207;-65
2023/10/30 13:40:55;;;;;;;2.10;0.95;;;;;;;;;;4951600;28;20235;-65
2023/10/30 13:43:20;;;;;;;3.58;1.10;;;;;;;;;;4952066;28;20579;-65
2023/10/30 13:45:46;;;;;;;5.93;0.95;;;;;;;;;;4951258;28;20238;-65
2023/10/30 13:48:11;;;;;;;3.75;1.00;;;;;;;;;;4954176;28;21148;-65
2023/10/30 13:50:36;;;;;;;4.97;1.17;;;;;;;;;;4950881;28;20698;-66
2023/10/30 13:53:01;;;;;;;4.10;0.90;;;;;;;;;;4955409;28;20188;-65
2023/10/30 13:55:27;;;;;;;7.60;1.83;;;;;;;;;;4951052;28;20270;-66
2023/10/30 13:57:52;;;;;;;2.58;1.10;;;;;;;;;;4952417;28;20288;-65
2023/10/30 14:00:18;;;;;;;3.88;1.20;;;;;;;;;;4951288;28;20189;-65
2023/10/30 14:02:43;;;;;;;7.97;1.65;;;;;;;;;;4952264;28;20183;-65
2023/10/30 14:05:09;;;;;;;2.90;1.10;;;;;;;;;;4956539;28;20291;-65
2023/10/30 14:07:34;;;;;;;4.25;1.13;;;;;;;;;;4951104;28;20250;-66
2023/10/30 14:09:59;;;;;;;3.58;0.77;;;;;;;;;;4951367;28;20192;-65
2023/10/30 14:12:24;;;;;;;3.53;1.00;;;;;;;;;;4953728;28;20180;-65
2023/10/30 14:14:49;;;;;;;2.95;1.05;;;;;;;;;;4950376;28;20220;-65
2023/10/30 14:17:15;;;;;;;3.70;1.23;;;;;;;;;;4950268;28;21394;-65
2023/10/30 14:19:40;;;;;;;5.03;1.08;;;;;;;;;;4949429;28;20267;-65
2023/10/30 14:22:05;;;;;;;2.20;0.93;;;;;;;;;;4952455;28;20176;-65
2023/10/30 14:24:30;;;;;;;3.10;0.80;;;;;;;;;;4955425;28;20180;-65
2023/10/30 14:26:55;;;;;;;4.68;1.40;;;;;;;;;;4950136;28;20426;-65
2023/10/30 14:29:21;;;;;;;2.53;1.20;;;;;;;;;;4950512;28;20291;-66
2023/10/30 14:31:46;;;;;;;5.28;2.22;;;;;;;;;;4950743;28;20259;-65
2023/10/30 14:34:11;;;;;;;3.70;1.33;;;;;;;;;;4956548;28;21946;-65